sensor_id;sensor_type;location;lat;lon;timestamp;P1;durP1;ratioP1;P2;durP2;ratioP2
23300;SDS011;11819;51.394;12.340;2022-12-18T00:01:56;63.47;;;32.07;;
23300;SDS011;11819;51.394;12.340;2022-12-18T00:04:24;63.00;;;31.37;;
23300;SDS011;11819;51.394;12.340;2022-12-18T00:06:51;67.57;;;32.77;;
23300;SDS011;11819;51.394;12.340;2022-12-18T00:09:17;69.93;;;31.00;;
23300;SDS011;11819;51.394;12.340;2022-12-18T00:11:44;71.57;;;33.60;;
23300;SDS011;11819;51.394;12.340;2022-12-18T00:14:11;69.00;;;30.30;;
23300;SDS011;11819;51.394;12.340;2022-12-18T00:16:37;66.70;;;30.80;;
23300;SDS011;11819;51.394;12.340;2022-12-18T00:19:04;61.30;;;30.70;;
23300;SDS011;11819;51.394;12.340;2022-12-18T00:21:30;61.97;;;31.10;;
23300;SDS011;11819;51.394;12.340;2022-12-18T00:23:58;57.33;;;29.60;;
23300;SDS011;11819;51.394;12.340;2022-12-18T00:26:28;59.37;;;30.23;;
23300;SDS011;11819;51.394;12.340;2022-12-18T00:28:59;60.70;;;30.97;;
23300;SDS011;11819;51.394;12.340;2022-12-18T00:31:35;62.83;;;29.97;;
23300;SDS011;11819;51.394;12.340;2022-12-18T00:34:02;60.47;;;27.30;;
23300;SDS011;11819;51.394;12.340;2022-12-18T00:36:29;63.93;;;30.37;;
23300;SDS011;11819;51.394;12.340;2022-12-18T00:38:57;68.17;;;31.13;;
23300;SDS011;11819;51.394;12.340;2022-12-18T00:41:24;63.07;;;31.13;;
23300;SDS011;11819;51.394;12.340;2022-12-18T00:44:09;64.53;;;30.80;;
23300;SDS011;11819;51.394;12.340;2022-12-18T00:46:37;64.10;;;30.70;;
23300;SDS011;11819;51.394;12.340;2022-12-18T00:49:02;56.30;;;28.20;;
23300;SDS011;11819;51.394;12.340;2022-12-18T00:51:28;52.50;;;27.40;;
23300;SDS011;11819;51.394;12.340;2022-12-18T00:53:54;57.97;;;29.97;;
23300;SDS011;11819;51.394;12.340;2022-12-18T00:56:19;62.97;;;29.93;;
23300;SDS011;11819;51.394;12.340;2022-12-18T00:58:45;62.37;;;29.87;;
23300;SDS011;11819;51.394;12.340;2022-12-18T01:01:11;65.63;;;30.37;;
23300;SDS011;11819;51.394;12.340;2022-12-18T01:03:36;63.60;;;31.20;;
23300;SDS011;11819;51.394;12.340;2022-12-18T01:06:06;65.20;;;30.87;;
23300;SDS011;11819;51.394;12.340;2022-12-18T01:08:32;60.30;;;28.77;;
23300;SDS011;11819;51.394;12.340;2022-12-18T01:10:58;66.67;;;31.63;;
23300;SDS011;11819;51.394;12.340;2022-12-18T01:13:24;62.90;;;31.63;;
23300;SDS011;11819;51.394;12.340;2022-12-18T01:15:50;60.27;;;30.87;;
23300;SDS011;11819;51.394;12.340;2022-12-18T01:18:15;57.93;;;31.40;;
23300;SDS011;11819;51.394;12.340;2022-12-18T01:20:41;60.17;;;30.73;;
23300;SDS011;11819;51.394;12.340;2022-12-18T01:23:07;63.60;;;32.87;;
23300;SDS011;11819;51.394;12.340;2022-12-18T01:25:32;59.77;;;31.37;;
23300;SDS011;11819;51.394;12.340;2022-12-18T01:28:00;65.00;;;31.47;;
23300;SDS011;11819;51.394;12.340;2022-12-18T01:30:26;66.77;;;31.03;;
23300;SDS011;11819;51.394;12.340;2022-12-18T01:32:52;56.80;;;30.13;;
23300;SDS011;11819;51.394;12.340;2022-12-18T01:35:18;62.93;;;31.03;;
23300;SDS011;11819;51.394;12.340;2022-12-18T01:37:45;65.20;;;29.93;;
23300;SDS011;11819;51.394;12.340;2022-12-18T01:40:11;57.10;;;29.57;;
23300;SDS011;11819;51.394;12.340;2022-12-18T01:42:36;61.73;;;29.17;;
23300;SDS011;11819;51.394;12.340;2022-12-18T01:45:06;62.60;;;29.73;;
23300;SDS011;11819;51.394;12.340;2022-12-18T01:47:48;55.53;;;27.80;;
23300;SDS011;11819;51.394;12.340;2022-12-18T01:50:21;56.53;;;28.00;;
23300;SDS011;11819;51.394;12.340;2022-12-18T01:52:58;55.90;;;29.07;;
23300;SDS011;11819;51.394;12.340;2022-12-18T01:55:31;52.50;;;28.80;;
23300;SDS011;11819;51.394;12.340;2022-12-18T01:58:02;56.30;;;28.07;;
23300;SDS011;11819;51.394;12.340;2022-12-18T02:00:28;56.20;;;27.23;;
23300;SDS011;11819;51.394;12.340;2022-12-18T02:02:55;55.90;;;26.83;;
23300;SDS011;11819;51.394;12.340;2022-12-18T02:06:09;54.80;;;27.63;;
23300;SDS011;11819;51.394;12.340;2022-12-18T02:08:23;52.13;;;25.93;;
23300;SDS011;11819;51.394;12.340;2022-12-18T02:11:12;57.43;;;27.03;;
23300;SDS011;11819;51.394;12.340;2022-12-18T02:14:23;49.63;;;26.07;;
23300;SDS011;11819;51.394;12.340;2022-12-18T02:19:40;57.23;;;28.23;;
23300;SDS011;11819;51.394;12.340;2022-12-18T02:25:40;54.17;;;26.43;;
23300;SDS011;11819;51.394;12.340;2022-12-18T02:28:28;51.77;;;26.23;;
23300;SDS011;11819;51.394;12.340;2022-12-18T02:31:02;52.67;;;25.83;;
23300;SDS011;11819;51.394;12.340;2022-12-18T02:33:33;53.07;;;26.77;;
23300;SDS011;11819;51.394;12.340;2022-12-18T02:36:00;55.63;;;25.27;;
23300;SDS011;11819;51.394;12.340;2022-12-18T02:38:29;55.93;;;26.97;;
23300;SDS011;11819;51.394;12.340;2022-12-18T02:41:03;57.37;;;27.63;;
23300;SDS011;11819;51.394;12.340;2022-12-18T02:43:30;50.67;;;25.93;;
23300;SDS011;11819;51.394;12.340;2022-12-18T02:45:58;49.37;;;25.83;;
23300;SDS011;11819;51.394;12.340;2022-12-18T02:48:32;55.23;;;27.90;;
23300;SDS011;11819;51.394;12.340;2022-12-18T02:54:19;48.53;;;24.83;;
23300;SDS011;11819;51.394;12.340;2022-12-18T02:56:35;52.33;;;26.63;;
23300;SDS011;11819;51.394;12.340;2022-12-18T02:59:18;51.47;;;26.13;;
23300;SDS011;11819;51.394;12.340;2022-12-18T03:02:06;47.67;;;23.97;;
23300;SDS011;11819;51.394;12.340;2022-12-18T03:07:20;54.40;;;26.53;;
23300;SDS011;11819;51.394;12.340;2022-12-18T03:09:54;48.30;;;24.50;;
23300;SDS011;11819;51.394;12.340;2022-12-18T03:12:24;45.30;;;25.57;;
23300;SDS011;11819;51.394;12.340;2022-12-18T03:17:55;47.90;;;24.67;;
23300;SDS011;11819;51.394;12.340;2022-12-18T03:20:26;48.20;;;25.23;;
23300;SDS011;11819;51.394;12.340;2022-12-18T03:22:57;50.20;;;23.33;;
23300;SDS011;11819;51.394;12.340;2022-12-18T03:25:47;54.87;;;24.77;;
23300;SDS011;11819;51.394;12.340;2022-12-18T03:28:20;50.70;;;25.40;;
23300;SDS011;11819;51.394;12.340;2022-12-18T03:30:55;52.20;;;26.27;;
23300;SDS011;11819;51.394;12.340;2022-12-18T03:33:31;49.87;;;25.00;;
23300;SDS011;11819;51.394;12.340;2022-12-18T03:36:06;50.67;;;25.30;;
23300;SDS011;11819;51.394;12.340;2022-12-18T03:38:32;50.53;;;23.57;;
23300;SDS011;11819;51.394;12.340;2022-12-18T03:46:47;45.33;;;23.80;;
23300;SDS011;11819;51.394;12.340;2022-12-18T03:49:57;45.33;;;23.10;;
23300;SDS011;11819;51.394;12.340;2022-12-18T03:52:38;42.77;;;22.37;;
23300;SDS011;11819;51.394;12.340;2022-12-18T03:55:10;44.03;;;23.77;;
23300;SDS011;11819;51.394;12.340;2022-12-18T03:57:38;41.63;;;22.53;;
23300;SDS011;11819;51.394;12.340;2022-12-18T04:00:07;50.50;;;24.07;;
23300;SDS011;11819;51.394;12.340;2022-12-18T04:02:52;42.10;;;23.70;;
23300;SDS011;11819;51.394;12.340;2022-12-18T04:05:27;47.83;;;24.07;;
23300;SDS011;11819;51.394;12.340;2022-12-18T04:07:54;43.07;;;23.03;;
23300;SDS011;11819;51.394;12.340;2022-12-18T04:10:22;42.30;;;22.30;;
23300;SDS011;11819;51.394;12.340;2022-12-18T04:12:47;48.70;;;21.70;;
23300;SDS011;11819;51.394;12.340;2022-12-18T04:15:14;51.13;;;24.83;;
23300;SDS011;11819;51.394;12.340;2022-12-18T04:17:43;46.47;;;23.07;;
23300;SDS011;11819;51.394;12.340;2022-12-18T04:20:15;48.17;;;24.77;;
23300;SDS011;11819;51.394;12.340;2022-12-18T04:22:43;43.83;;;22.70;;
23300;SDS011;11819;51.394;12.340;2022-12-18T04:25:09;46.93;;;23.67;;
23300;SDS011;11819;51.394;12.340;2022-12-18T04:27:42;43.50;;;23.27;;
23300;SDS011;11819;51.394;12.340;2022-12-18T04:30:09;43.47;;;21.90;;
23300;SDS011;11819;51.394;12.340;2022-12-18T04:32:35;45.93;;;24.30;;
23300;SDS011;11819;51.394;12.340;2022-12-18T04:35:02;47.30;;;23.03;;
23300;SDS011;11819;51.394;12.340;2022-12-18T04:37:30;42.60;;;23.03;;
23300;SDS011;11819;51.394;12.340;2022-12-18T04:39:56;37.17;;;20.33;;
23300;SDS011;11819;51.394;12.340;2022-12-18T04:42:29;44.43;;;22.57;;
23300;SDS011;11819;51.394;12.340;2022-12-18T04:44:55;41.30;;;21.70;;
23300;SDS011;11819;51.394;12.340;2022-12-18T04:47:20;37.90;;;20.53;;
23300;SDS011;11819;51.394;12.340;2022-12-18T04:49:46;40.10;;;20.93;;
23300;SDS011;11819;51.394;12.340;2022-12-18T04:52:12;43.63;;;20.80;;
23300;SDS011;11819;51.394;12.340;2022-12-18T04:54:38;38.63;;;20.30;;
23300;SDS011;11819;51.394;12.340;2022-12-18T04:57:03;39.57;;;20.23;;
23300;SDS011;11819;51.394;12.340;2022-12-18T04:59:29;37.67;;;19.70;;
23300;SDS011;11819;51.394;12.340;2022-12-18T05:01:54;38.43;;;18.50;;
23300;SDS011;11819;51.394;12.340;2022-12-18T05:04:20;40.77;;;19.77;;
23300;SDS011;11819;51.394;12.340;2022-12-18T05:06:46;31.93;;;17.63;;
23300;SDS011;11819;51.394;12.340;2022-12-18T05:09:11;33.97;;;17.30;;
23300;SDS011;11819;51.394;12.340;2022-12-18T05:11:37;33.00;;;18.17;;
23300;SDS011;11819;51.394;12.340;2022-12-18T05:14:02;36.63;;;18.93;;
23300;SDS011;11819;51.394;12.340;2022-12-18T05:16:28;36.33;;;17.40;;
23300;SDS011;11819;51.394;12.340;2022-12-18T05:18:54;35.93;;;18.80;;
23300;SDS011;11819;51.394;12.340;2022-12-18T05:21:20;34.53;;;17.87;;
23300;SDS011;11819;51.394;12.340;2022-12-18T05:23:45;34.30;;;18.27;;
23300;SDS011;11819;51.394;12.340;2022-12-18T05:26:14;29.93;;;17.20;;
23300;SDS011;11819;51.394;12.340;2022-12-18T05:28:41;35.70;;;17.40;;
23300;SDS011;11819;51.394;12.340;2022-12-18T05:31:07;35.13;;;18.03;;
23300;SDS011;11819;51.394;12.340;2022-12-18T05:33:33;32.57;;;17.47;;
23300;SDS011;11819;51.394;12.340;2022-12-18T05:36:00;33.20;;;17.50;;
23300;SDS011;11819;51.394;12.340;2022-12-18T05:38:28;31.97;;;15.63;;
23300;SDS011;11819;51.394;12.340;2022-12-18T05:40:55;33.07;;;16.93;;
23300;SDS011;11819;51.394;12.340;2022-12-18T05:43:22;30.40;;;17.17;;
23300;SDS011;11819;51.394;12.340;2022-12-18T05:45:48;31.03;;;16.80;;
23300;SDS011;11819;51.394;12.340;2022-12-18T05:48:15;32.67;;;17.83;;
23300;SDS011;11819;51.394;12.340;2022-12-18T05:50:42;32.23;;;17.20;;
23300;SDS011;11819;51.394;12.340;2022-12-18T05:53:11;31.30;;;15.97;;
23300;SDS011;11819;51.394;12.340;2022-12-18T05:55:38;34.43;;;17.83;;
23300;SDS011;11819;51.394;12.340;2022-12-18T05:58:05;31.63;;;16.43;;
23300;SDS011;11819;51.394;12.340;2022-12-18T06:00:33;32.03;;;15.80;;
23300;SDS011;11819;51.394;12.340;2022-12-18T06:03:05;31.17;;;14.77;;
23300;SDS011;11819;51.394;12.340;2022-12-18T06:05:35;32.30;;;16.53;;
23300;SDS011;11819;51.394;12.340;2022-12-18T06:08:02;28.57;;;15.73;;
23300;SDS011;11819;51.394;12.340;2022-12-18T06:10:28;35.87;;;17.10;;
23300;SDS011;11819;51.394;12.340;2022-12-18T06:12:53;31.83;;;16.47;;
23300;SDS011;11819;51.394;12.340;2022-12-18T06:15:19;29.40;;;14.80;;
23300;SDS011;11819;51.394;12.340;2022-12-18T06:17:44;29.97;;;16.17;;
23300;SDS011;11819;51.394;12.340;2022-12-18T06:20:10;35.03;;;17.37;;
23300;SDS011;11819;51.394;12.340;2022-12-18T06:22:36;31.63;;;17.40;;
23300;SDS011;11819;51.394;12.340;2022-12-18T06:25:01;33.77;;;16.73;;
23300;SDS011;11819;51.394;12.340;2022-12-18T06:27:27;31.70;;;17.00;;
23300;SDS011;11819;51.394;12.340;2022-12-18T06:29:53;32.73;;;17.27;;
23300;SDS011;11819;51.394;12.340;2022-12-18T06:32:18;33.17;;;17.47;;
23300;SDS011;11819;51.394;12.340;2022-12-18T06:34:44;35.03;;;17.17;;
23300;SDS011;11819;51.394;12.340;2022-12-18T06:37:09;31.20;;;17.70;;
23300;SDS011;11819;51.394;12.340;2022-12-18T06:39:35;32.93;;;15.70;;
23300;SDS011;11819;51.394;12.340;2022-12-18T06:42:01;30.17;;;17.03;;
23300;SDS011;11819;51.394;12.340;2022-12-18T06:44:26;31.17;;;16.13;;
23300;SDS011;11819;51.394;12.340;2022-12-18T06:46:52;31.57;;;15.93;;
23300;SDS011;11819;51.394;12.340;2022-12-18T06:49:17;36.17;;;16.90;;
23300;SDS011;11819;51.394;12.340;2022-12-18T06:51:43;31.87;;;16.87;;
23300;SDS011;11819;51.394;12.340;2022-12-18T06:54:08;28.27;;;15.43;;
23300;SDS011;11819;51.394;12.340;2022-12-18T06:56:34;32.83;;;16.33;;
23300;SDS011;11819;51.394;12.340;2022-12-18T06:59:00;31.07;;;15.90;;
23300;SDS011;11819;51.394;12.340;2022-12-18T07:01:26;33.17;;;17.30;;
23300;SDS011;11819;51.394;12.340;2022-12-18T07:03:52;28.73;;;15.70;;
23300;SDS011;11819;51.394;12.340;2022-12-18T07:06:19;33.27;;;15.47;;
23300;SDS011;11819;51.394;12.340;2022-12-18T07:08:47;29.83;;;15.33;;
23300;SDS011;11819;51.394;12.340;2022-12-18T07:11:13;28.57;;;15.97;;
23300;SDS011;11819;51.394;12.340;2022-12-18T07:13:41;25.90;;;14.47;;
23300;SDS011;11819;51.394;12.340;2022-12-18T07:16:08;27.00;;;15.77;;
23300;SDS011;11819;51.394;12.340;2022-12-18T07:18:35;32.27;;;15.47;;
23300;SDS011;11819;51.394;12.340;2022-12-18T07:21:09;26.17;;;14.43;;
23300;SDS011;11819;51.394;12.340;2022-12-18T07:23:36;31.93;;;15.23;;
23300;SDS011;11819;51.394;12.340;2022-12-18T07:26:09;26.37;;;14.83;;
23300;SDS011;11819;51.394;12.340;2022-12-18T07:28:37;28.77;;;14.47;;
23300;SDS011;11819;51.394;12.340;2022-12-18T07:31:04;27.20;;;14.47;;
23300;SDS011;11819;51.394;12.340;2022-12-18T07:33:37;28.37;;;14.50;;
23300;SDS011;11819;51.394;12.340;2022-12-18T07:36:03;28.37;;;16.20;;
23300;SDS011;11819;51.394;12.340;2022-12-18T07:38:31;27.93;;;15.20;;
23300;SDS011;11819;51.394;12.340;2022-12-18T07:41:04;30.87;;;14.63;;
23300;SDS011;11819;51.394;12.340;2022-12-18T07:43:33;27.30;;;15.77;;
23300;SDS011;11819;51.394;12.340;2022-12-18T07:45:59;29.63;;;16.07;;
23300;SDS011;11819;51.394;12.340;2022-12-18T07:48:25;28.97;;;16.17;;
23300;SDS011;11819;51.394;12.340;2022-12-18T07:50:51;28.60;;;16.53;;
23300;SDS011;11819;51.394;12.340;2022-12-18T07:53:17;30.93;;;15.00;;
23300;SDS011;11819;51.394;12.340;2022-12-18T07:55:43;28.17;;;16.57;;
23300;SDS011;11819;51.394;12.340;2022-12-18T07:58:08;34.03;;;17.27;;
23300;SDS011;11819;51.394;12.340;2022-12-18T08:00:34;28.00;;;14.90;;
23300;SDS011;11819;51.394;12.340;2022-12-18T08:03:00;32.93;;;16.57;;
23300;SDS011;11819;51.394;12.340;2022-12-18T08:05:26;33.10;;;16.07;;
23300;SDS011;11819;51.394;12.340;2022-12-18T08:07:53;33.87;;;16.37;;
23300;SDS011;11819;51.394;12.340;2022-12-18T08:10:20;28.60;;;15.13;;
23300;SDS011;11819;51.394;12.340;2022-12-18T08:12:48;33.23;;;16.27;;
23300;SDS011;11819;51.394;12.340;2022-12-18T08:15:14;30.03;;;16.13;;
23300;SDS011;11819;51.394;12.340;2022-12-18T08:17:40;28.20;;;16.93;;
23300;SDS011;11819;51.394;12.340;2022-12-18T08:20:06;28.83;;;16.10;;
23300;SDS011;11819;51.394;12.340;2022-12-18T08:22:33;31.17;;;17.33;;
23300;SDS011;11819;51.394;12.340;2022-12-18T08:25:02;28.03;;;16.13;;
23300;SDS011;11819;51.394;12.340;2022-12-18T08:27:28;29.83;;;16.73;;
23300;SDS011;11819;51.394;12.340;2022-12-18T08:29:54;31.07;;;16.20;;
23300;SDS011;11819;51.394;12.340;2022-12-18T08:32:20;32.83;;;17.43;;
23300;SDS011;11819;51.394;12.340;2022-12-18T08:34:46;28.70;;;16.13;;
23300;SDS011;11819;51.394;12.340;2022-12-18T08:37:11;33.10;;;16.50;;
23300;SDS011;11819;51.394;12.340;2022-12-18T08:39:37;34.60;;;16.63;;
23300;SDS011;11819;51.394;12.340;2022-12-18T08:42:03;27.90;;;16.57;;
23300;SDS011;11819;51.394;12.340;2022-12-18T08:44:47;26.93;;;15.80;;
23300;SDS011;11819;51.394;12.340;2022-12-18T08:47:13;26.67;;;14.87;;
23300;SDS011;11819;51.394;12.340;2022-12-18T08:49:38;28.93;;;16.03;;
23300;SDS011;11819;51.394;12.340;2022-12-18T08:52:04;28.90;;;17.27;;
23300;SDS011;11819;51.394;12.340;2022-12-18T08:54:30;28.77;;;15.77;;
23300;SDS011;11819;51.394;12.340;2022-12-18T08:56:56;28.33;;;14.57;;
23300;SDS011;11819;51.394;12.340;2022-12-18T08:59:21;27.33;;;15.30;;
23300;SDS011;11819;51.394;12.340;2022-12-18T09:01:48;28.53;;;16.80;;
23300;SDS011;11819;51.394;12.340;2022-12-18T09:04:14;27.67;;;13.87;;
23300;SDS011;11819;51.394;12.340;2022-12-18T09:06:40;29.53;;;16.43;;
23300;SDS011;11819;51.394;12.340;2022-12-18T09:09:06;30.73;;;15.93;;
23300;SDS011;11819;51.394;12.340;2022-12-18T09:11:32;30.83;;;15.43;;
23300;SDS011;11819;51.394;12.340;2022-12-18T09:13:59;24.23;;;15.40;;
23300;SDS011;11819;51.394;12.340;2022-12-18T09:16:26;29.50;;;16.43;;
23300;SDS011;11819;51.394;12.340;2022-12-18T09:18:54;29.93;;;16.13;;
23300;SDS011;11819;51.394;12.340;2022-12-18T09:21:24;29.03;;;15.97;;
23300;SDS011;11819;51.394;12.340;2022-12-18T09:23:52;31.60;;;15.80;;
23300;SDS011;11819;51.394;12.340;2022-12-18T09:26:20;26.00;;;14.43;;
23300;SDS011;11819;51.394;12.340;2022-12-18T09:28:46;29.00;;;15.20;;
23300;SDS011;11819;51.394;12.340;2022-12-18T09:31:12;27.03;;;13.93;;
23300;SDS011;11819;51.394;12.340;2022-12-18T09:33:38;24.00;;;14.73;;
23300;SDS011;11819;51.394;12.340;2022-12-18T09:36:05;26.90;;;14.97;;
23300;SDS011;11819;51.394;12.340;2022-12-18T09:38:32;30.93;;;16.40;;
23300;SDS011;11819;51.394;12.340;2022-12-18T09:41:00;25.97;;;14.53;;
23300;SDS011;11819;51.394;12.340;2022-12-18T09:43:34;26.87;;;14.63;;
23300;SDS011;11819;51.394;12.340;2022-12-18T09:46:06;31.47;;;15.60;;
23300;SDS011;11819;51.394;12.340;2022-12-18T09:48:42;26.50;;;14.70;;
23300;SDS011;11819;51.394;12.340;2022-12-18T09:51:18;27.07;;;13.10;;
23300;SDS011;11819;51.394;12.340;2022-12-18T09:53:52;24.63;;;13.17;;
23300;SDS011;11819;51.394;12.340;2022-12-18T09:56:22;20.27;;;12.83;;
23300;SDS011;11819;51.394;12.340;2022-12-18T09:58:57;25.70;;;14.87;;
23300;SDS011;11819;51.394;12.340;2022-12-18T10:01:25;24.97;;;14.23;;
23300;SDS011;11819;51.394;12.340;2022-12-18T10:03:52;25.60;;;13.10;;
23300;SDS011;11819;51.394;12.340;2022-12-18T10:06:33;20.10;;;13.20;;
23300;SDS011;11819;51.394;12.340;2022-12-18T10:09:05;24.73;;;13.70;;
23300;SDS011;11819;51.394;12.340;2022-12-18T10:11:57;24.50;;;14.20;;
23300;SDS011;11819;51.394;12.340;2022-12-18T10:20:05;21.20;;;12.53;;
23300;SDS011;11819;51.394;12.340;2022-12-18T10:22:43;22.77;;;12.87;;
23300;SDS011;11819;51.394;12.340;2022-12-18T10:25:22;24.57;;;12.87;;
23300;SDS011;11819;51.394;12.340;2022-12-18T10:27:57;21.90;;;12.40;;
23300;SDS011;11819;51.394;12.340;2022-12-18T10:30:26;22.77;;;12.63;;
23300;SDS011;11819;51.394;12.340;2022-12-18T10:32:52;23.67;;;12.10;;
23300;SDS011;11819;51.394;12.340;2022-12-18T10:35:23;23.80;;;13.60;;
23300;SDS011;11819;51.394;12.340;2022-12-18T10:38:07;21.20;;;12.10;;
23300;SDS011;11819;51.394;12.340;2022-12-18T10:43:27;22.67;;;13.77;;
23300;SDS011;11819;51.394;12.340;2022-12-18T10:48:33;26.90;;;14.37;;
23300;SDS011;11819;51.394;12.340;2022-12-18T10:51:33;25.97;;;12.63;;
23300;SDS011;11819;51.394;12.340;2022-12-18T10:54:01;24.67;;;13.50;;
23300;SDS011;11819;51.394;12.340;2022-12-18T10:56:42;22.23;;;14.27;;
23300;SDS011;11819;51.394;12.340;2022-12-18T10:59:09;18.53;;;12.23;;
23300;SDS011;11819;51.394;12.340;2022-12-18T11:01:47;22.20;;;12.93;;
23300;SDS011;11819;51.394;12.340;2022-12-18T11:07:01;22.00;;;12.53;;
23300;SDS011;11819;51.394;12.340;2022-12-18T11:12:00;20.23;;;12.17;;
23300;SDS011;11819;51.394;12.340;2022-12-18T11:15:01;20.57;;;12.40;;
23300;SDS011;11819;51.394;12.340;2022-12-18T11:17:22;25.43;;;13.07;;
23300;SDS011;11819;51.394;12.340;2022-12-18T11:19:59;20.33;;;12.37;;
23300;SDS011;11819;51.394;12.340;2022-12-18T11:22:28;21.63;;;12.27;;
23300;SDS011;11819;51.394;12.340;2022-12-18T11:24:59;21.77;;;12.37;;
23300;SDS011;11819;51.394;12.340;2022-12-18T11:27:31;20.30;;;11.87;;
23300;SDS011;11819;51.394;12.340;2022-12-18T11:32:59;20.57;;;11.50;;
23300;SDS011;11819;51.394;12.340;2022-12-18T11:38:12;22.43;;;12.20;;
23300;SDS011;11819;51.394;12.340;2022-12-18T11:40:47;23.00;;;13.00;;
23300;SDS011;11819;51.394;12.340;2022-12-18T11:43:31;23.23;;;13.17;;
23300;SDS011;11819;51.394;12.340;2022-12-18T11:46:16;20.63;;;12.60;;
23300;SDS011;11819;51.394;12.340;2022-12-18T11:48:55;23.73;;;13.10;;
23300;SDS011;11819;51.394;12.340;2022-12-18T11:51:34;20.50;;;12.53;;
23300;SDS011;11819;51.394;12.340;2022-12-18T11:54:11;20.27;;;12.57;;
23300;SDS011;11819;51.394;12.340;2022-12-18T12:08:04;20.23;;;12.27;;
23300;SDS011;11819;51.394;12.340;2022-12-18T12:13:14;22.80;;;12.40;;
23300;SDS011;11819;51.394;12.340;2022-12-18T12:18:32;23.10;;;13.23;;
23300;SDS011;11819;51.394;12.340;2022-12-18T12:21:35;21.43;;;12.90;;
23300;SDS011;11819;51.394;12.340;2022-12-18T12:29:30;22.87;;;12.50;;
23300;SDS011;11819;51.394;12.340;2022-12-18T12:35:31;20.53;;;12.07;;
23300;SDS011;11819;51.394;12.340;2022-12-18T12:38:12;21.20;;;12.87;;
23300;SDS011;11819;51.394;12.340;2022-12-18T12:40:54;19.80;;;12.10;;
23300;SDS011;11819;51.394;12.340;2022-12-18T12:43:33;22.70;;;11.77;;
23300;SDS011;11819;51.394;12.340;2022-12-18T12:46:11;19.37;;;11.00;;
23300;SDS011;11819;51.394;12.340;2022-12-18T12:51:35;20.67;;;11.23;;
23300;SDS011;11819;51.394;12.340;2022-12-18T12:54:05;18.27;;;11.00;;
23300;SDS011;11819;51.394;12.340;2022-12-18T12:56:39;18.90;;;10.57;;
23300;SDS011;11819;51.394;12.340;2022-12-18T13:02:20;18.57;;;11.33;;
23300;SDS011;11819;51.394;12.340;2022-12-18T13:04:56;20.90;;;11.80;;
23300;SDS011;11819;51.394;12.340;2022-12-18T13:07:47;17.17;;;10.80;;
23300;SDS011;11819;51.394;12.340;2022-12-18T13:12:57;19.77;;;12.70;;
23300;SDS011;11819;51.394;12.340;2022-12-18T13:18:04;25.73;;;11.30;;
23300;SDS011;11819;51.394;12.340;2022-12-18T13:20:40;24.00;;;12.73;;
23300;SDS011;11819;51.394;12.340;2022-12-18T13:25:49;21.43;;;12.00;;
23300;SDS011;11819;51.394;12.340;2022-12-18T13:28:17;23.60;;;12.90;;
23300;SDS011;11819;51.394;12.340;2022-12-18T13:31:03;20.43;;;11.30;;
23300;SDS011;11819;51.394;12.340;2022-12-18T13:36:01;20.63;;;12.97;;
23300;SDS011;11819;51.394;12.340;2022-12-18T13:38:46;20.70;;;13.30;;
23300;SDS011;11819;51.394;12.340;2022-12-18T13:43:52;21.23;;;12.10;;
23300;SDS011;11819;51.394;12.340;2022-12-18T13:49:05;25.03;;;14.60;;
23300;SDS011;11819;51.394;12.340;2022-12-18T13:51:49;25.40;;;13.83;;
23300;SDS011;11819;51.394;12.340;2022-12-18T13:54:23;23.70;;;13.50;;
23300;SDS011;11819;51.394;12.340;2022-12-18T13:56:57;24.07;;;12.80;;
23300;SDS011;11819;51.394;12.340;2022-12-18T13:59:34;25.60;;;14.13;;
23300;SDS011;11819;51.394;12.340;2022-12-18T14:02:07;25.23;;;13.87;;
23300;SDS011;11819;51.394;12.340;2022-12-18T14:04:44;26.73;;;14.73;;
23300;SDS011;11819;51.394;12.340;2022-12-18T14:07:12;25.70;;;14.53;;
23300;SDS011;11819;51.394;12.340;2022-12-18T14:09:47;28.83;;;14.57;;
23300;SDS011;11819;51.394;12.340;2022-12-18T14:12:16;25.10;;;15.47;;
23300;SDS011;11819;51.394;12.340;2022-12-18T14:15:02;26.33;;;16.17;;
23300;SDS011;11819;51.394;12.340;2022-12-18T14:17:31;30.93;;;15.77;;
23300;SDS011;11819;51.394;12.340;2022-12-18T14:19:57;30.43;;;18.30;;
23300;SDS011;11819;51.394;12.340;2022-12-18T14:22:24;31.20;;;18.67;;
23300;SDS011;11819;51.394;12.340;2022-12-18T14:27:41;32.60;;;18.07;;
23300;SDS011;11819;51.394;12.340;2022-12-18T14:33:03;31.17;;;18.53;;
23300;SDS011;11819;51.394;12.340;2022-12-18T14:36:04;35.87;;;19.23;;
23300;SDS011;11819;51.394;12.340;2022-12-18T14:38:31;38.97;;;20.00;;
23300;SDS011;11819;51.394;12.340;2022-12-18T14:40:58;35.47;;;19.33;;
23300;SDS011;11819;51.394;12.340;2022-12-18T14:43:46;37.17;;;21.07;;
23300;SDS011;11819;51.394;12.340;2022-12-18T14:46:26;31.63;;;19.37;;
23300;SDS011;11819;51.394;12.340;2022-12-18T14:48:55;39.37;;;20.03;;
23300;SDS011;11819;51.394;12.340;2022-12-18T14:51:22;36.67;;;20.70;;
23300;SDS011;11819;51.394;12.340;2022-12-18T14:53:59;34.37;;;19.93;;
23300;SDS011;11819;51.394;12.340;2022-12-18T14:56:27;46.13;;;21.90;;
23300;SDS011;11819;51.394;12.340;2022-12-18T14:58:57;34.33;;;19.80;;
23300;SDS011;11819;51.394;12.340;2022-12-18T15:01:37;38.00;;;20.90;;
23300;SDS011;11819;51.394;12.340;2022-12-18T15:04:27;40.37;;;22.10;;
23300;SDS011;11819;51.394;12.340;2022-12-18T15:07:04;38.43;;;20.50;;
23300;SDS011;11819;51.394;12.340;2022-12-18T15:09:31;36.17;;;20.17;;
23300;SDS011;11819;51.394;12.340;2022-12-18T15:11:57;39.87;;;21.57;;
23300;SDS011;11819;51.394;12.340;2022-12-18T15:14:30;36.90;;;21.13;;
23300;SDS011;11819;51.394;12.340;2022-12-18T15:17:05;38.93;;;20.63;;
23300;SDS011;11819;51.394;12.340;2022-12-18T15:19:39;37.77;;;21.03;;
23300;SDS011;11819;51.394;12.340;2022-12-18T15:25:00;39.00;;;21.07;;
23300;SDS011;11819;51.394;12.340;2022-12-18T15:27:33;35.77;;;20.77;;
23300;SDS011;11819;51.394;12.340;2022-12-18T15:30:11;35.93;;;19.73;;
23300;SDS011;11819;51.394;12.340;2022-12-18T15:32:43;34.50;;;20.87;;
23300;SDS011;11819;51.394;12.340;2022-12-18T15:37:49;36.47;;;19.17;;
23300;SDS011;11819;51.394;12.340;2022-12-18T15:40:17;35.93;;;21.13;;
23300;SDS011;11819;51.394;12.340;2022-12-18T15:42:44;36.33;;;20.83;;
23300;SDS011;11819;51.394;12.340;2022-12-18T15:45:29;37.27;;;20.80;;
23300;SDS011;11819;51.394;12.340;2022-12-18T15:47:55;37.37;;;20.17;;
23300;SDS011;11819;51.394;12.340;2022-12-18T15:50:21;38.23;;;20.93;;
23300;SDS011;11819;51.394;12.340;2022-12-18T15:52:48;39.80;;;20.83;;
23300;SDS011;11819;51.394;12.340;2022-12-18T15:55:16;36.80;;;20.97;;
23300;SDS011;11819;51.394;12.340;2022-12-18T15:58:06;38.87;;;21.13;;
23300;SDS011;11819;51.394;12.340;2022-12-18T16:00:36;42.47;;;22.23;;
23300;SDS011;11819;51.394;12.340;2022-12-18T16:03:04;44.57;;;23.43;;
23300;SDS011;11819;51.394;12.340;2022-12-18T16:05:30;40.80;;;21.83;;
23300;SDS011;11819;51.394;12.340;2022-12-18T16:07:56;45.17;;;23.60;;
23300;SDS011;11819;51.394;12.340;2022-12-18T16:10:23;39.37;;;22.67;;